Airfield :
LOGIN :

Register | Disclaimer

   EN    FR    IT 

 










Legend :    VFR   Marginal VFR   IFR   Intensive IFR   Very Intensive IFR
Visi :
Ceiling :
>= 8 km
>= 3000ft
5 to 8 km
1000 to 3000 ft
1500m to 5 km
500 to 1000 ft
800 to 1500m
200 to 500 ft
< 800m
< 200 ft
Symbols :   Thunderstorms  Fog  Heavy snow  Heavy precipitations  Wind > 20 kt
SIGMETs :     Misc.  Thunderstorms  Icing  Turbulence  Mountain Waves  Volcanic Ashes







- Airport Elevation : 1197 ft
- IATA code : SPM


ETAD - Spangdahlem Ab

CURRENT METAR :
  • 181556Z AUTO 23008KT 9999 CLR 11/01 A3003 RMK AO2 SLP170 T01120009 $

EXPIRED METARs :
  • 181456Z AUTO 21008KT 9999 CLR 12/02 A3004 RMK AO2 SLP171 T01170016 55011 $
  • 181356Z AUTO 20007KT 9999 CLR 12/02 A3004 RMK AO2 SLP170 T01190015 $

TAF TAF ETAD
Valid from the 18 at 13:00 until the 19 at 19:00 UTC


181300Z 1813/1919 22009KT 9999 SKC QNH3000INS
BECMG 1901/1902 23008KT 9999 SCT005 BKN010 OVC030 QNH2999INS
TEMPO 1906/1911 27008KT 5000 -RA BR BKN005 OVC010
BECMG 1911/1912 27010G15KT 9999 BKN030 QNH3005INS TX12/1815Z TN02/1902Z
No reported NOTAMs for that airfield.



MET'MAP, your aeronautical weather chart ! - Copyright ORBIFLY December 2007 - Disclaimer

ORBIFLY MET'MAP TEAM :

Programming & Development : Alexandra Zaïnal
Concept & Development : Baudouin d'Aumeries
Co-Development & Prog : Marc-Olivier Méhu
Technical & hardware support : Manuel Goepfert

Contact : metmap@orbifly.com




SOURCES & CREDITS :

   NOAA